createdAt,value
2022-08-12T00:00:34.303Z,15.37
2022-08-12T00:02:03.632Z,15.40
2022-08-12T00:02:35.319Z,15.40
2022-08-12T00:03:40.401Z,15.42
2022-08-12T00:04:34.266Z,15.45
2022-08-12T00:05:34.452Z,15.45
2022-08-12T00:06:34.240Z,15.46
2022-08-12T00:07:34.231Z,15.46
2022-08-12T00:08:36.837Z,15.43
2022-08-12T00:09:34.215Z,15.40
2022-08-12T00:10:34.198Z,15.50
2022-08-12T00:11:34.186Z,15.56
2022-08-12T00:12:34.175Z,15.64
2022-08-12T00:13:34.163Z,15.68
2022-08-12T00:14:34.153Z,15.67
2022-08-12T00:15:34.143Z,15.64
2022-08-12T00:16:34.135Z,15.56
2022-08-12T00:17:34.122Z,15.53
2022-08-12T00:18:34.119Z,15.46
2022-08-12T00:19:34.107Z,15.38
2022-08-12T00:20:34.096Z,15.34
2022-08-12T00:21:35.912Z,15.28
2022-08-12T00:22:34.082Z,15.27
2022-08-12T00:23:34.257Z,15.31
2022-08-12T00:24:34.048Z,15.26
2022-08-12T00:26:00.366Z,15.22
2022-08-12T00:26:35.061Z,15.19
2022-08-12T00:27:43.584Z,15.12
2022-08-12T00:28:35.044Z,15.05
2022-08-12T00:29:33.992Z,15.01
2022-08-12T00:30:33.977Z,14.95
2022-08-12T00:31:33.967Z,14.88
2022-08-12T00:32:35.865Z,14.88
2022-08-12T00:33:38.707Z,14.88
2022-08-12T00:34:35.193Z,14.87
2022-08-12T00:35:36.778Z,14.87
2022-08-12T00:36:35.821Z,14.82
2022-08-12T00:37:33.903Z,14.80
2022-08-12T00:38:34.014Z,14.80
2022-08-12T00:39:33.929Z,14.85
2022-08-12T00:40:33.882Z,14.88
2022-08-12T00:41:33.860Z,14.87
2022-08-12T00:42:33.850Z,14.90
2022-08-12T00:43:33.852Z,14.90
2022-08-12T00:44:33.826Z,14.80
2022-08-12T00:45:34.022Z,14.79
2022-08-12T00:46:34.012Z,14.79
2022-08-12T00:47:33.803Z,14.70
2022-08-12T00:48:33.802Z,14.68
2022-08-12T00:49:33.975Z,14.69
2022-08-12T00:50:33.764Z,14.61
2022-08-12T00:51:33.754Z,14.57
2022-08-12T00:52:33.745Z,14.54
2022-08-12T00:53:33.736Z,14.52
2022-08-12T00:54:33.719Z,14.52
2022-08-12T00:55:33.716Z,14.50
2022-08-12T00:56:33.699Z,14.46
2022-08-12T00:57:33.694Z,14.40
2022-08-12T00:58:33.678Z,14.43
2022-08-12T00:59:33.666Z,14.43
2022-08-12T01:00:33.662Z,14.40
2022-08-12T01:02:02.482Z,14.50
2022-08-12T01:02:34.736Z,14.54
2022-08-12T01:03:33.622Z,14.61
2022-08-12T01:04:39.618Z,14.69
2022-08-12T01:05:33.600Z,14.77
2022-08-12T01:06:39.602Z,14.76
2022-08-12T01:07:33.586Z,14.77
2022-08-12T01:08:33.567Z,14.70
2022-08-12T01:09:33.564Z,14.65
2022-08-12T01:10:33.548Z,14.55
2022-08-12T01:11:33.536Z,14.52
2022-08-12T01:12:33.526Z,14.46
2022-08-12T01:13:33.528Z,14.37
2022-08-12T01:14:33.508Z,14.35
2022-08-12T01:15:33.498Z,14.28
2022-08-12T01:16:33.482Z,14.24
2022-08-12T01:17:33.473Z,14.17
2022-08-12T01:18:33.461Z,14.09
2022-08-12T01:19:33.454Z,13.98
2022-08-12T01:20:33.437Z,13.94
2022-08-12T01:21:33.636Z,13.94
2022-08-12T01:22:33.417Z,13.88
2022-08-12T01:23:33.412Z,13.83
2022-08-12T01:24:33.395Z,13.78
2022-08-12T01:25:33.395Z,13.70
2022-08-12T01:26:33.378Z,13.69
2022-08-12T01:27:33.363Z,13.66
2022-08-12T01:28:33.357Z,13.63
2022-08-12T01:29:33.565Z,13.59
2022-08-12T01:30:33.537Z,13.59
2022-08-12T01:31:33.335Z,13.56
2022-08-12T01:32:33.310Z,13.47
2022-08-12T01:33:33.304Z,13.45
2022-08-12T01:34:36.179Z,13.41
2022-08-12T01:35:39.295Z,13.38
2022-08-12T01:36:33.266Z,13.30
2022-08-12T01:37:33.258Z,13.26
2022-08-12T01:38:33.255Z,13.25
2022-08-12T01:39:33.363Z,13.26
2022-08-12T01:40:37.679Z,13.23
2022-08-12T01:41:33.212Z,13.28
2022-08-12T01:42:33.208Z,13.28
2022-08-12T01:43:33.192Z,13.30
2022-08-12T01:44:33.183Z,13.23
2022-08-12T01:45:43.152Z,13.20
2022-08-12T01:46:33.169Z,13.17
2022-08-12T01:47:33.149Z,13.12
2022-08-12T01:48:39.147Z,13.10
2022-08-12T01:49:33.128Z,13.10
2022-08-12T01:50:33.327Z,13.10
2022-08-12T01:52:21.869Z,12.97
2022-08-12T01:52:34.141Z,13.01
2022-08-12T01:53:50.483Z,12.95
2022-08-12T01:54:34.109Z,12.93
2022-08-12T01:55:33.066Z,13.00
2022-08-12T01:56:33.052Z,12.96
2022-08-12T01:57:59.237Z,13.01
2022-08-12T01:58:34.067Z,13.05
2022-08-12T01:59:33.022Z,13.03
2022-08-12T02:00:36.084Z,13.01
2022-08-12T02:01:34.113Z,13.00
2022-08-12T02:02:32.995Z,13.03
2022-08-12T02:03:32.981Z,12.97
2022-08-12T02:04:32.970Z,13.00
2022-08-12T02:05:33.112Z,12.96
2022-08-12T02:06:32.949Z,12.89
2022-08-12T02:07:32.937Z,12.89
2022-08-12T02:08:32.929Z,12.89
2022-08-12T02:09:32.923Z,12.89
2022-08-12T02:10:50.158Z,12.90
2022-08-12T02:11:33.929Z,12.93
2022-08-12T02:12:32.890Z,12.90
2022-08-12T02:13:42.036Z,12.90
2022-08-12T02:14:33.898Z,12.93
2022-08-12T02:15:32.852Z,12.90
2022-08-12T02:16:33.046Z,12.86
2022-08-12T02:17:54.627Z,12.90
2022-08-12T02:18:33.855Z,12.82
2022-08-12T02:19:33.012Z,12.79
2022-08-12T02:20:35.173Z,12.74
2022-08-12T02:21:33.824Z,12.77
2022-08-12T02:22:32.776Z,12.75
2022-08-12T02:23:32.769Z,12.74
2022-08-12T02:24:32.754Z,12.75
2022-08-12T02:25:32.743Z,12.74
2022-08-12T02:26:32.729Z,12.71
2022-08-12T02:27:32.720Z,12.70
2022-08-12T02:28:32.707Z,12.70
2022-08-12T02:29:32.709Z,12.61
2022-08-12T02:30:41.228Z,12.61
2022-08-12T02:31:33.726Z,12.58
2022-08-12T02:32:32.671Z,12.61
2022-08-12T02:33:32.657Z,12.61
2022-08-12T02:34:32.649Z,12.64
2022-08-12T02:35:32.638Z,12.61
2022-08-12T02:36:32.622Z,12.56
2022-08-12T02:37:32.616Z,12.56
2022-08-12T02:38:32.617Z,12.51
2022-08-12T02:39:32.668Z,12.49
2022-08-12T02:40:32.595Z,12.51
2022-08-12T02:41:32.570Z,12.40
2022-08-12T02:42:32.557Z,12.40
2022-08-12T02:43:32.555Z,12.38
2022-08-12T02:44:32.547Z,12.38
2022-08-12T02:45:32.531Z,12.37
2022-08-12T02:46:32.570Z,12.37
2022-08-12T02:47:59.231Z,12.41
2022-08-12T02:48:33.536Z,12.46
2022-08-12T02:49:32.491Z,12.58
2022-08-12T02:50:32.477Z,12.65
2022-08-12T02:51:32.478Z,12.77
2022-08-12T02:52:32.453Z,12.77
2022-08-12T02:53:32.444Z,12.74
2022-08-12T02:54:32.434Z,12.72
2022-08-12T02:55:34.901Z,12.68
2022-08-12T02:56:32.418Z,12.67
2022-08-12T02:57:32.402Z,12.58
2022-08-12T02:58:33.316Z,12.51
2022-08-12T02:59:32.586Z,12.48
2022-08-12T03:00:32.376Z,12.45
2022-08-12T03:01:32.621Z,12.44
2022-08-12T03:02:32.350Z,12.44
2022-08-12T03:03:32.360Z,12.37
2022-08-12T03:04:32.325Z,12.36
2022-08-12T03:05:32.314Z,12.37
2022-08-12T03:06:32.309Z,12.33
2022-08-12T03:07:55.901Z,12.27
2022-08-12T03:08:33.521Z,12.30
2022-08-12T03:09:35.851Z,12.23
2022-08-12T03:10:37.620Z,12.22
2022-08-12T03:11:32.252Z,12.20
2022-08-12T03:12:47.462Z,12.19
2022-08-12T03:13:33.473Z,12.19
2022-08-12T03:14:32.230Z,12.19
2022-08-12T03:15:32.209Z,12.26
2022-08-12T03:16:33.147Z,12.28
2022-08-12T03:17:32.187Z,12.26
2022-08-12T03:18:32.175Z,12.27
2022-08-12T03:19:32.172Z,12.30
2022-08-12T03:20:32.159Z,12.38
2022-08-12T03:21:55.678Z,12.51
2022-08-12T03:22:33.170Z,12.55
2022-08-12T03:23:32.131Z,12.53
2022-08-12T03:24:38.120Z,12.56
2022-08-12T03:25:32.109Z,12.52
2022-08-12T03:26:32.092Z,12.58
2022-08-12T03:27:32.134Z,12.64
2022-08-12T03:28:32.068Z,12.58
2022-08-12T03:29:32.059Z,12.59
2022-08-12T03:30:33.085Z,12.65
2022-08-12T03:31:32.040Z,12.71
2022-08-12T03:32:35.852Z,12.74
2022-08-12T03:33:34.080Z,12.78
2022-08-12T03:34:32.009Z,12.79
2022-08-12T03:35:41.377Z,12.79
2022-08-12T03:36:33.019Z,12.79
2022-08-12T03:37:31.972Z,12.82
2022-08-12T03:38:31.964Z,12.78
2022-08-12T03:39:36.016Z,12.78
2022-08-12T03:40:31.944Z,12.86
2022-08-12T03:41:31.930Z,12.95
2022-08-12T03:42:31.925Z,12.95
2022-08-12T03:43:31.911Z,12.96
2022-08-12T03:44:31.913Z,12.93
2022-08-12T03:45:31.836Z,12.93
2022-08-12T03:46:31.892Z,12.79
2022-08-12T03:47:31.828Z,12.82
2022-08-12T03:48:31.805Z,12.72
2022-08-12T03:49:31.998Z,12.72
2022-08-12T03:50:31.836Z,12.70
2022-08-12T03:51:31.831Z,12.64
2022-08-12T03:52:31.849Z,12.64
2022-08-12T03:53:31.764Z,12.53
2022-08-12T03:54:31.999Z,12.53
2022-08-12T03:55:31.783Z,12.49
2022-08-12T03:56:31.731Z,12.48
2022-08-12T03:57:31.719Z,12.48
2022-08-12T03:58:31.698Z,12.44
2022-08-12T03:59:31.693Z,12.46
2022-08-12T04:00:31.683Z,12.41
2022-08-12T04:01:31.814Z,12.41
2022-08-12T04:02:32.688Z,12.45
2022-08-12T04:03:31.643Z,12.46
2022-08-12T04:04:31.633Z,12.52
2022-08-12T04:05:54.515Z,12.56
2022-08-12T04:06:34.814Z,12.56
2022-08-12T04:07:31.609Z,12.55
2022-08-12T04:08:31.594Z,12.65
2022-08-12T04:09:31.581Z,12.68
2022-08-12T04:10:31.571Z,12.74
2022-08-12T04:11:32.262Z,12.67
2022-08-12T04:12:32.854Z,12.77
2022-08-12T04:13:32.574Z,12.86
2022-08-12T04:14:31.533Z,12.96
2022-08-12T04:15:31.534Z,13.01
2022-08-12T04:16:31.506Z,13.03
2022-08-12T04:17:31.507Z,13.05
2022-08-12T04:18:31.489Z,13.07
2022-08-12T04:19:31.482Z,13.07
2022-08-12T04:20:31.468Z,13.08
2022-08-12T04:21:31.453Z,13.05
2022-08-12T04:22:31.443Z,13.07
2022-08-12T04:23:31.450Z,13.05
2022-08-12T04:24:31.419Z,13.04
2022-08-12T04:25:31.415Z,13.11
2022-08-12T04:26:31.405Z,13.22
2022-08-12T04:27:32.117Z,13.51
2022-08-12T04:28:31.379Z,13.72
2022-08-12T04:30:30.138Z,13.99
2022-08-12T04:30:33.749Z,14.29
2022-08-12T04:31:31.342Z,14.52
2022-08-12T04:32:31.378Z,15.00
2022-08-12T04:33:31.322Z,15.33
2022-08-12T04:34:31.312Z,15.71
2022-08-12T04:35:31.305Z,15.93
2022-08-12T04:36:31.293Z,15.94
2022-08-12T04:37:58.137Z,16.05
2022-08-12T04:38:32.306Z,16.09
2022-08-12T04:39:31.278Z,16.07
2022-08-12T04:40:31.295Z,16.01
2022-08-12T04:41:31.244Z,15.86
2022-08-12T04:42:31.287Z,15.57
2022-08-12T04:44:00.422Z,15.26
2022-08-12T04:44:32.242Z,15.00
2022-08-12T04:45:31.204Z,14.83
2022-08-12T04:46:34.743Z,14.72
2022-08-12T04:47:37.182Z,14.57
2022-08-12T04:48:31.174Z,14.45
2022-08-12T04:49:31.154Z,14.32
2022-08-12T04:50:35.963Z,14.24
2022-08-12T04:51:31.131Z,14.14
2022-08-12T04:52:34.858Z,14.02
2022-08-12T04:53:31.113Z,13.98
2022-08-12T04:54:31.097Z,13.86
2022-08-12T04:55:37.095Z,13.81
2022-08-12T04:56:35.538Z,13.78
2022-08-12T04:57:31.066Z,13.70
2022-08-12T04:58:31.059Z,13.68
2022-08-12T04:59:31.045Z,13.66
2022-08-12T05:00:32.069Z,13.66
2022-08-12T05:01:31.023Z,13.65
2022-08-12T05:02:31.066Z,13.63
2022-08-12T05:03:46.802Z,13.56
2022-08-12T05:04:32.027Z,13.51
2022-08-12T05:05:35.681Z,13.56
2022-08-12T05:06:30.968Z,13.58
2022-08-12T05:07:30.960Z,13.68
2022-08-12T05:08:30.948Z,13.72
2022-08-12T05:09:58.729Z,13.84
2022-08-12T05:10:33.808Z,13.94
2022-08-12T05:11:30.916Z,14.10
2022-08-12T05:12:30.967Z,14.22
2022-08-12T05:13:30.893Z,14.39
2022-08-12T05:14:33.336Z,14.54
2022-08-12T05:15:31.916Z,14.73
2022-08-12T05:16:34.281Z,14.88
2022-08-12T05:17:30.852Z,15.05
2022-08-12T05:18:30.839Z,15.08
2022-08-12T05:19:30.829Z,15.16
2022-08-12T05:20:30.840Z,15.28
2022-08-12T05:21:30.809Z,15.37
2022-08-12T05:22:30.856Z,15.43
2022-08-12T05:23:32.990Z,15.51
2022-08-12T05:24:30.783Z,15.56
2022-08-12T05:25:30.971Z,15.69
2022-08-12T05:26:30.758Z,15.90
2022-08-12T05:27:32.752Z,16.08
2022-08-12T05:28:30.742Z,16.27
2022-08-12T05:30:06.576Z,16.45
2022-08-12T05:30:31.748Z,16.59
2022-08-12T05:31:42.365Z,16.65
2022-08-12T05:32:31.758Z,16.70
2022-08-12T05:33:30.682Z,16.78
2022-08-12T05:34:30.667Z,16.87
2022-08-12T05:35:30.659Z,17.07
2022-08-12T05:36:30.651Z,17.19
2022-08-12T05:37:30.636Z,17.28
2022-08-12T05:38:30.830Z,17.43
2022-08-12T05:39:30.656Z,17.59
2022-08-12T05:40:30.601Z,17.80
2022-08-12T05:41:30.589Z,18.07
2022-08-12T05:42:32.687Z,18.14
2022-08-12T05:43:36.582Z,18.09
2022-08-12T05:44:30.560Z,18.09
2022-08-12T05:45:30.557Z,18.09
2022-08-12T05:46:30.537Z,18.10
2022-08-12T05:47:36.721Z,18.16
2022-08-12T05:48:31.557Z,18.28
2022-08-12T05:49:30.507Z,18.42
2022-08-12T05:50:30.497Z,18.78
2022-08-12T05:51:40.361Z,19.25
2022-08-12T05:52:31.512Z,19.72
2022-08-12T05:53:30.469Z,20.08
2022-08-12T05:54:54.393Z,20.61
2022-08-12T05:55:31.508Z,21.22
2022-08-12T05:56:30.472Z,21.64
2022-08-12T05:57:36.425Z,21.80
2022-08-12T05:58:30.411Z,22.16
2022-08-12T05:59:30.403Z,22.34
2022-08-12T06:00:30.392Z,22.65
2022-08-12T06:02:10.787Z,22.61
2022-08-12T06:02:31.436Z,22.73
2022-08-12T06:03:30.415Z,22.72
2022-08-12T06:04:30.346Z,22.72
2022-08-12T06:05:30.336Z,22.51
2022-08-12T06:06:31.666Z,22.67
2022-08-12T06:08:00.504Z,22.67
2022-08-12T06:08:31.341Z,22.79
2022-08-12T06:09:30.309Z,22.98
2022-08-12T06:10:32.042Z,23.19
2022-08-12T06:11:30.269Z,23.64
2022-08-12T06:12:30.331Z,24.27
2022-08-12T06:13:54.291Z,24.94
2022-08-12T06:14:30.237Z,25.35
2022-08-12T06:15:30.228Z,26.06
2022-08-12T06:16:30.217Z,26.51
2022-08-12T06:17:30.205Z,26.94
2022-08-12T06:18:30.193Z,27.18
2022-08-12T06:20:25.859Z,27.50
2022-08-12T06:20:34.306Z,27.37
2022-08-12T06:21:36.169Z,27.74
2022-08-12T06:22:30.160Z,27.58
2022-08-12T06:23:30.486Z,27.65
2022-08-12T06:24:30.130Z,28.20
2022-08-12T06:25:30.138Z,28.62
2022-08-12T06:26:30.104Z,28.61
2022-08-12T06:27:30.094Z,28.99
2022-08-12T06:28:36.112Z,29.29
2022-08-12T06:30:08.553Z,28.90
2022-08-12T06:30:35.220Z,28.62
2022-08-12T06:31:30.057Z,28.73
2022-08-12T06:32:30.162Z,28.89
2022-08-12T06:34:00.934Z,28.73
2022-08-12T06:35:26.142Z,29.29
2022-08-12T06:35:47.492Z,29.71
2022-08-12T06:36:33.361Z,29.83
2022-08-12T06:37:29.990Z,30.20
2022-08-12T06:38:29.979Z,30.88
2022-08-12T06:39:30.015Z,29.82
2022-08-12T06:40:29.962Z,29.73
2022-08-12T06:41:29.949Z,30.02
2022-08-12T06:42:32.865Z,30.61
2022-08-12T06:43:29.927Z,31.11
2022-08-12T06:44:30.949Z,31.46
2022-08-12T06:45:45.280Z,31.17
2022-08-12T06:46:30.929Z,31.38
2022-08-12T06:47:29.885Z,31.73
2022-08-12T06:48:29.871Z,31.84
2022-08-12T06:49:29.859Z,31.47
2022-08-12T06:50:39.941Z,30.59
2022-08-12T06:51:29.845Z,30.26
2022-08-12T06:52:29.831Z,30.97
2022-08-12T06:53:29.821Z,31.63
2022-08-12T06:54:31.676Z,32.17
2022-08-12T06:55:29.795Z,32.13
2022-08-12T06:57:01.814Z,32.44
2022-08-12T06:58:05.155Z,32.28
2022-08-12T06:58:30.805Z,32.50
2022-08-12T06:59:29.965Z,32.97
2022-08-12T07:00:32.567Z,32.92
2022-08-12T07:01:35.747Z,32.92
2022-08-12T07:02:32.561Z,32.94
2022-08-12T07:03:29.711Z,32.37
2022-08-12T07:04:38.239Z,31.85
2022-08-12T07:05:31.690Z,32.17
2022-08-12T07:06:29.686Z,31.73
2022-08-12T07:07:29.670Z,31.20
2022-08-12T07:08:35.675Z,31.38
2022-08-12T07:09:59.498Z,31.76
2022-08-12T07:10:30.881Z,32.37
2022-08-12T07:11:29.834Z,32.42
2022-08-12T07:12:35.629Z,31.98
2022-08-12T07:13:29.605Z,31.81
2022-08-12T07:14:29.598Z,32.34
2022-08-12T07:15:29.589Z,32.56
2022-08-12T07:16:29.783Z,32.56
2022-08-12T07:17:29.774Z,32.32
2022-08-12T07:18:29.559Z,32.66
2022-08-12T07:19:40.608Z,32.74
2022-08-12T07:20:51.696Z,33.03
2022-08-12T07:22:00.252Z,33.77
2022-08-12T07:22:30.753Z,33.98
2022-08-12T07:23:29.706Z,34.25
2022-08-12T07:24:29.491Z,34.58
2022-08-12T07:25:37.546Z,34.62
2022-08-12T07:26:30.511Z,34.44
2022-08-12T07:27:29.479Z,34.50
2022-08-12T07:28:29.460Z,34.77
2022-08-12T07:29:58.228Z,35.06
2022-08-12T07:30:30.485Z,35.52
2022-08-12T07:31:29.418Z,35.45
2022-08-12T07:32:29.643Z,35.40
2022-08-12T07:33:29.400Z,35.63
2022-08-12T07:34:29.433Z,35.82
2022-08-12T07:35:29.379Z,36.05
2022-08-12T07:36:29.372Z,36.16
2022-08-12T07:37:29.357Z,35.52
2022-08-12T07:38:30.545Z,35.09
2022-08-12T07:39:29.577Z,35.48
2022-08-12T07:40:29.327Z,36.21
2022-08-12T07:41:29.317Z,36.95
2022-08-12T07:42:29.495Z,37.56
2022-08-12T07:43:29.310Z,37.85
2022-08-12T07:44:35.293Z,37.95
2022-08-12T07:45:29.488Z,38.03
2022-08-12T07:46:29.263Z,38.41
2022-08-12T07:47:29.259Z,38.84
2022-08-12T07:48:35.456Z,38.81
2022-08-12T07:49:29.242Z,38.05
2022-08-12T07:50:29.228Z,38.21
2022-08-12T07:51:29.442Z,38.00
2022-08-12T07:52:29.208Z,38.52
2022-08-12T07:53:29.397Z,38.32
2022-08-12T07:54:29.188Z,38.35
2022-08-12T07:55:29.176Z,38.69
2022-08-12T07:56:29.166Z,39.28
2022-08-12T07:57:35.158Z,39.28
2022-08-12T07:58:29.347Z,39.40
2022-08-12T07:59:31.194Z,39.61
2022-08-12T08:00:29.129Z,39.88
2022-08-12T08:01:29.435Z,38.15
2022-08-12T08:02:29.103Z,37.80
2022-08-12T08:03:29.107Z,38.05
2022-08-12T08:04:29.088Z,38.37
2022-08-12T08:05:29.076Z,39.10
2022-08-12T08:06:29.068Z,39.34
2022-08-12T08:07:29.257Z,38.32
2022-08-12T08:08:35.054Z,37.74
2022-08-12T08:09:29.037Z,38.54
2022-08-12T08:10:29.030Z,39.03
2022-08-12T08:12:19.052Z,38.84
2022-08-12T08:13:12.840Z,39.17
2022-08-12T08:14:11.795Z,38.59
2022-08-12T08:15:11.784Z,37.69
2022-08-12T08:16:11.979Z,37.36
2022-08-12T08:17:19.969Z,36.72
2022-08-12T08:18:13.249Z,35.65
2022-08-12T08:19:11.747Z,35.59
2022-08-12T08:20:11.752Z,35.68
2022-08-12T08:21:11.724Z,36.11
2022-08-12T08:22:11.917Z,36.01
2022-08-12T08:23:11.905Z,35.84
2022-08-12T08:24:11.692Z,36.03
2022-08-12T08:25:36.669Z,36.12
2022-08-12T08:26:11.877Z,36.07
2022-08-12T08:27:11.663Z,36.24
2022-08-12T08:28:11.660Z,36.30
2022-08-12T08:29:11.648Z,35.84
2022-08-12T08:30:11.637Z,35.75
2022-08-12T08:31:11.625Z,36.40
2022-08-12T08:32:11.620Z,37.10
2022-08-12T08:33:20.099Z,37.40
2022-08-12T08:34:33.211Z,36.27
2022-08-12T08:35:12.623Z,36.31
2022-08-12T08:36:23.669Z,36.77
2022-08-12T08:37:15.393Z,36.93
2022-08-12T08:38:28.745Z,36.18
2022-08-12T08:39:11.651Z,36.36
2022-08-12T08:40:11.745Z,36.28
2022-08-12T08:42:15.824Z,35.47
2022-08-12T08:42:20.317Z,35.70
2022-08-12T08:43:11.516Z,35.55
2022-08-12T08:44:11.770Z,35.17
2022-08-12T08:45:11.702Z,35.52
2022-08-12T08:46:11.504Z,35.45
2022-08-12T08:47:11.483Z,36.00
2022-08-12T08:48:11.561Z,36.50
2022-08-12T08:49:17.471Z,36.75
2022-08-12T08:50:11.453Z,36.63
2022-08-12T08:51:11.441Z,36.45
2022-08-12T08:52:39.238Z,37.20
2022-08-12T08:53:12.455Z,37.44
2022-08-12T08:54:11.410Z,36.15
2022-08-12T08:55:11.403Z,36.30
2022-08-12T08:56:11.391Z,36.26
2022-08-12T08:57:11.391Z,36.70
2022-08-12T08:58:13.375Z,36.16
2022-08-12T08:59:17.370Z,36.49
2022-08-12T09:00:11.353Z,37.71
2022-08-12T09:01:11.445Z,38.10
2022-08-12T09:02:13.428Z,37.21
2022-08-12T09:04:21.183Z,37.22
2022-08-12T09:05:16.357Z,37.32
2022-08-12T09:06:11.505Z,37.83
2022-08-12T09:07:17.824Z,37.85
2022-08-12T09:08:19.250Z,38.60
2022-08-12T09:09:13.071Z,38.84
2022-08-12T09:10:53.340Z,37.39
2022-08-12T09:11:12.289Z,36.58
2022-08-12T09:13:22.848Z,37.10
2022-08-12T09:14:19.153Z,36.48
2022-08-12T09:15:19.498Z,36.48
2022-08-12T09:16:12.343Z,35.82
2022-08-12T09:17:11.400Z,35.81
2022-08-12T09:18:11.227Z,36.31
2022-08-12T09:19:27.443Z,36.74
2022-08-12T09:20:15.900Z,36.56
2022-08-12T09:21:11.167Z,35.52
2022-08-12T09:22:11.565Z,35.35
2022-08-12T09:23:57.600Z,36.05
2022-08-12T09:24:12.173Z,36.63
2022-08-12T09:25:25.970Z,36.40
2022-08-12T09:26:13.316Z,36.48
2022-08-12T09:28:19.443Z,36.68
2022-08-12T09:29:12.469Z,35.89
2022-08-12T09:30:14.208Z,36.53
2022-08-12T09:32:03.818Z,37.24
2022-08-12T09:32:57.129Z,37.73
2022-08-12T09:33:18.668Z,38.26
2022-08-12T09:34:28.503Z,38.26
2022-08-12T09:35:18.533Z,38.12
2022-08-12T09:36:12.466Z,37.58
2022-08-12T09:37:57.921Z,37.07
2022-08-12T09:38:58.517Z,37.00
2022-08-12T09:40:06.017Z,36.46
2022-08-12T09:41:01.651Z,36.24
2022-08-12T09:42:09.028Z,36.79
2022-08-12T09:42:49.233Z,37.47
2022-08-12T09:43:47.094Z,37.74
2022-08-12T09:44:47.931Z,37.41
2022-08-12T09:46:29.787Z,37.90
2022-08-12T09:47:29.802Z,38.34
2022-08-12T09:48:35.139Z,39.13
2022-08-12T09:49:30.779Z,38.75
2022-08-12T09:50:29.526Z,38.46
2022-08-12T09:51:37.393Z,37.84
2022-08-12T09:52:31.846Z,37.74
2022-08-12T09:53:38.556Z,38.22
2022-08-12T09:54:34.250Z,37.74
2022-08-12T09:55:59.418Z,38.19
2022-08-12T09:56:59.581Z,38.08
2022-08-12T09:58:46.031Z,38.03
2022-08-12T09:58:53.771Z,38.50
2022-08-12T10:00:16.325Z,38.52
2022-08-12T10:00:43.191Z,38.66
2022-08-12T10:01:35.167Z,38.88
2022-08-12T10:02:53.159Z,39.17
2022-08-12T10:03:32.681Z,38.90
2022-08-12T10:04:30.220Z,38.79
2022-08-12T10:06:20.045Z,38.37
2022-08-12T10:06:32.412Z,38.14
2022-08-12T10:07:40.268Z,38.26
2022-08-12T10:08:29.791Z,38.72
2022-08-12T10:09:58.679Z,38.93
2022-08-12T10:10:30.768Z,38.66
2022-08-12T10:11:29.562Z,38.03
2022-08-12T10:12:31.445Z,37.03
2022-08-12T10:13:36.692Z,37.13
2022-08-12T10:14:33.307Z,36.84
2022-08-12T10:16:01.580Z,37.39
2022-08-12T10:16:33.951Z,37.61
2022-08-12T10:17:31.317Z,37.75
2022-08-12T10:19:17.041Z,37.77
2022-08-12T10:20:09.953Z,37.56
2022-08-12T10:21:07.996Z,38.57
2022-08-12T10:22:17.196Z,38.71
2022-08-12T10:23:09.402Z,37.88
2022-08-12T10:24:07.957Z,38.30
2022-08-12T10:25:17.673Z,38.42
2022-08-12T10:26:35.409Z,38.59
2022-08-12T10:27:08.971Z,38.87
2022-08-12T10:28:24.593Z,38.31
2022-08-12T10:30:38.783Z,38.11
2022-08-12T10:30:39.826Z,38.90
2022-08-12T10:31:16.432Z,38.87
2022-08-12T10:32:21.091Z,38.83
2022-08-12T10:33:17.971Z,38.44
2022-08-12T10:34:23.610Z,37.80
2022-08-12T10:35:08.076Z,37.49
2022-08-12T10:36:13.875Z,37.22
2022-08-12T10:37:23.445Z,37.90
2022-08-12T10:40:02.008Z,37.05
2022-08-12T10:40:11.521Z,37.56
2022-08-12T10:41:12.216Z,38.03
2022-08-12T10:42:15.303Z,38.56
2022-08-12T10:43:16.765Z,39.13
2022-08-12T10:44:08.244Z,38.44
2022-08-12T10:45:08.638Z,38.87
2022-08-12T10:46:13.618Z,38.95
2022-08-12T10:47:26.217Z,38.91
2022-08-12T10:49:06.603Z,39.17
2022-08-12T10:50:28.216Z,39.17
2022-08-12T10:51:03.951Z,38.93
2022-08-12T10:52:34.959Z,38.56
2022-08-12T10:53:03.924Z,38.68
2022-08-12T10:54:02.880Z,38.22
2022-08-12T10:55:02.872Z,39.61
2022-08-12T10:56:08.872Z,40.29
2022-08-12T10:57:08.869Z,40.10
2022-08-12T10:58:45.991Z,41.63
2022-08-12T10:59:39.146Z,41.78
2022-08-12T11:00:55.308Z,41.17
2022-08-12T11:04:16.732Z,40.83
2022-08-12T11:04:25.040Z,38.68
2022-08-12T11:04:35.500Z,40.45
2022-08-12T11:04:49.522Z,39.12
2022-08-12T11:07:08.365Z,39.10
2022-08-12T11:07:09.092Z,39.51
2022-08-12T11:08:38.705Z,39.34
2022-08-12T11:08:43.021Z,40.47
2022-08-12T11:10:14.308Z,41.92
2022-08-12T11:11:16.990Z,41.29
2022-08-12T11:12:55.110Z,41.01
2022-08-12T11:13:50.334Z,39.50
2022-08-12T11:14:51.478Z,38.94
2022-08-12T11:16:03.267Z,38.98
2022-08-12T11:17:33.678Z,38.69
2022-08-12T11:17:54.507Z,38.93
2022-08-12T11:18:55.004Z,39.67
2022-08-12T11:19:58.097Z,39.51
2022-08-12T11:21:39.615Z,40.27
2022-08-12T11:22:33.965Z,39.98
2022-08-12T11:23:38.811Z,39.92
2022-08-12T11:24:38.804Z,40.35
2022-08-12T11:25:56.044Z,40.03
2022-08-12T11:27:17.134Z,40.34
2022-08-12T11:28:17.321Z,39.92
2022-08-12T11:29:22.587Z,39.77
2022-08-12T11:30:30.551Z,39.81
2022-08-12T11:31:18.152Z,39.15
2022-08-12T11:32:23.201Z,39.49
2022-08-12T11:33:24.336Z,39.73
2022-08-12T11:34:52.564Z,39.49
2022-08-12T11:35:59.803Z,39.75
2022-08-12T11:36:53.526Z,39.66
2022-08-12T11:37:59.403Z,39.56
2022-08-12T11:38:53.889Z,38.87
2022-08-12T11:40:54.084Z,38.34
2022-08-12T11:41:52.837Z,37.73
2022-08-12T11:42:53.118Z,37.63
2022-08-12T11:43:58.962Z,38.26
2022-08-12T11:45:01.034Z,38.69
2022-08-12T11:45:59.032Z,38.25
2022-08-12T11:47:27.510Z,37.96
2022-08-12T11:48:27.895Z,38.18
2022-08-12T11:49:34.533Z,39.00
2022-08-12T11:50:33.485Z,39.10
2022-08-12T11:51:27.475Z,39.15
2022-08-12T11:52:54.885Z,39.46
2022-08-12T11:53:57.641Z,38.90
2022-08-12T11:54:33.598Z,39.15
2022-08-12T11:55:29.631Z,39.29
2022-08-12T11:56:38.202Z,39.44
2022-08-12T11:58:07.164Z,39.39
2022-08-12T12:00:23.973Z,38.93
2022-08-12T12:02:02.813Z,37.99
2022-08-12T12:02:34.561Z,38.03
2022-08-12T12:03:44.266Z,38.42
2022-08-12T12:04:28.991Z,38.60
2022-08-12T12:05:28.523Z,38.78
2022-08-12T12:06:28.640Z,38.50
2022-08-12T12:08:36.579Z,38.66
2022-08-12T12:08:38.197Z,38.87
2022-08-12T12:09:27.594Z,38.90
2022-08-12T12:10:28.422Z,39.13
2022-08-12T12:11:27.387Z,38.61
2022-08-12T12:12:28.815Z,38.22
2022-08-12T12:14:08.481Z,37.34
2022-08-12T12:14:38.156Z,37.06
2022-08-12T12:15:40.968Z,37.31
2022-08-12T12:16:28.393Z,37.05
2022-08-12T12:17:38.356Z,37.28
2022-08-12T12:18:33.564Z,37.12
2022-08-12T12:19:27.551Z,37.51
2022-08-12T12:20:30.566Z,37.92
2022-08-12T12:21:47.415Z,38.46
2022-08-12T12:22:31.023Z,39.21
2022-08-12T12:23:29.235Z,38.68
2022-08-12T12:24:27.320Z,37.88
2022-08-12T12:26:06.509Z,38.59
2022-08-12T12:26:35.297Z,37.85
2022-08-12T12:28:02.612Z,37.59
2022-08-12T12:28:36.826Z,37.40
2022-08-12T12:30:19.315Z,37.93
2022-08-12T12:30:29.879Z,37.78
2022-08-12T12:32:10.250Z,38.31
2022-08-12T12:32:34.524Z,39.16
2022-08-12T12:33:46.221Z,39.06
2022-08-12T12:34:30.296Z,39.22
2022-08-12T12:36:18.159Z,39.10
2022-08-12T12:36:29.918Z,39.12
2022-08-12T12:38:03.785Z,39.96
2022-08-12T12:38:28.352Z,38.74
2022-08-12T12:39:27.338Z,38.65
2022-08-12T12:40:30.099Z,38.54
2022-08-12T12:42:41.877Z,38.10
2022-08-12T12:42:42.889Z,37.41
2022-08-12T12:43:37.110Z,37.83
2022-08-12T12:44:38.423Z,38.11
2022-08-12T12:45:32.408Z,38.28
2022-08-12T12:46:33.430Z,38.37
2022-08-12T12:47:30.011Z,38.03
2022-08-12T12:49:11.158Z,37.93
2022-08-12T12:51:12.742Z,37.27
2022-08-12T12:52:18.972Z,37.73
2022-08-12T12:54:05.915Z,37.32
2022-08-12T12:54:13.711Z,37.46
2022-08-12T12:55:13.357Z,37.71
2022-08-12T12:56:18.859Z,38.14
2022-08-12T12:57:12.646Z,38.47
2022-08-12T12:58:12.644Z,37.99
2022-08-12T12:59:56.479Z,38.02
2022-08-12T13:00:50.155Z,36.95
2022-08-12T13:01:45.387Z,37.00
2022-08-12T13:02:43.713Z,37.17
2022-08-12T13:03:49.507Z,37.00
2022-08-12T13:04:43.359Z,36.79
2022-08-12T13:05:43.348Z,36.70
2022-08-12T13:06:43.395Z,36.88
2022-08-12T13:08:36.170Z,37.56
2022-08-12T13:09:36.283Z,37.20
2022-08-12T13:10:30.608Z,37.46